createdAt,value
2022-08-23T00:02:39.340Z,4.97
2022-08-23T00:05:44.622Z,4.97
2022-08-23T00:08:48.869Z,5.07
2022-08-23T00:12:09.404Z,4.40
2022-08-23T00:15:15.146Z,5.03
2022-08-23T00:18:18.403Z,4.55
2022-08-23T00:21:20.606Z,4.45
2022-08-23T00:24:24.490Z,3.92
2022-08-23T00:27:26.961Z,4.70
2022-08-23T00:30:29.713Z,4.25
2022-08-23T00:33:31.797Z,4.50
2022-08-23T00:36:35.377Z,4.55
2022-08-23T00:39:39.115Z,4.03
2022-08-23T00:43:09.181Z,5.15
2022-08-23T00:46:41.576Z,4.60
2022-08-23T00:49:48.446Z,4.50
2022-08-23T00:53:12.009Z,4.30
2022-08-23T00:56:17.170Z,3.83
2022-08-23T00:59:19.501Z,4.40
2022-08-23T01:02:22.251Z,4.62
2022-08-23T01:05:31.224Z,4.15
2022-08-23T01:08:35.478Z,3.75
2022-08-23T01:11:47.758Z,3.65
2022-08-23T01:15:09.065Z,3.55
2022-08-23T01:18:15.257Z,3.70
2022-08-23T01:21:45.446Z,3.25
2022-08-23T01:25:07.023Z,3.90
2022-08-23T01:28:10.862Z,4.25
2022-08-23T01:31:13.730Z,4.05
2022-08-23T01:34:18.282Z,4.00
2022-08-23T01:37:21.230Z,4.43
2022-08-23T01:40:24.688Z,4.15
2022-08-23T01:43:27.437Z,4.60
2022-08-23T01:46:29.942Z,4.47
2022-08-23T01:49:33.073Z,5.12
2022-08-23T01:52:36.957Z,5.35
2022-08-23T01:55:42.148Z,5.12
2022-08-23T01:58:44.478Z,5.10
2022-08-23T02:01:47.561Z,4.90
2022-08-23T02:04:50.261Z,4.87
2022-08-23T02:07:52.417Z,4.87
2022-08-23T02:10:55.692Z,5.07
2022-08-23T02:14:01.036Z,5.50
2022-08-23T02:17:05.139Z,5.80
2022-08-23T02:20:08.817Z,5.05
2022-08-23T02:23:11.594Z,5.90
2022-08-23T02:26:13.962Z,5.97
2022-08-23T02:29:18.866Z,6.80
2022-08-23T02:32:21.285Z,6.05
2022-08-23T02:35:24.532Z,6.87
2022-08-23T02:38:27.120Z,6.22
2022-08-23T02:41:30.026Z,7.18
2022-08-23T02:44:34.639Z,6.85
2022-08-23T02:47:37.029Z,6.85
2022-08-23T02:50:40.294Z,6.85
2022-08-23T02:53:42.964Z,6.90
2022-08-23T02:56:45.522Z,7.12
2022-08-23T02:59:47.605Z,6.85
2022-08-23T03:02:49.994Z,6.07
2022-08-23T03:05:52.977Z,6.18
2022-08-23T03:08:56.674Z,7.10
2022-08-23T03:11:58.863Z,7.37
2022-08-23T03:15:01.302Z,7.50
2022-08-23T03:18:03.477Z,6.95
2022-08-23T03:21:07.406Z,7.62
2022-08-23T03:24:10.474Z,7.55
2022-08-23T03:27:13.785Z,6.95
2022-08-23T03:30:19.680Z,7.87
2022-08-23T03:33:24.429Z,7.10
2022-08-23T03:36:27.883Z,7.57
2022-08-23T03:39:31.320Z,8.32
2022-08-23T03:42:33.819Z,8.27
2022-08-23T03:45:37.903Z,8.82
2022-08-23T03:48:41.330Z,8.80
2022-08-23T03:51:43.857Z,8.77
2022-08-23T03:54:45.954Z,8.77
2022-08-23T03:57:49.060Z,8.30
2022-08-23T04:00:51.567Z,8.65
2022-08-23T04:03:54.068Z,9.18
2022-08-23T04:06:56.345Z,9.32
2022-08-23T04:09:58.887Z,9.10
2022-08-23T04:13:01.404Z,9.73
2022-08-23T04:16:04.974Z,9.88
2022-08-23T04:19:09.726Z,9.05
2022-08-23T04:25:33.711Z,9.73
2022-08-23T04:28:37.861Z,9.20
2022-08-23T04:31:41.770Z,10.35
2022-08-23T04:34:45.676Z,9.38
2022-08-23T04:37:54.029Z,9.43
2022-08-23T04:41:15.822Z,9.00
2022-08-23T04:44:18.685Z,8.88
2022-08-23T04:47:21.412Z,8.90
2022-08-23T04:50:24.606Z,9.52
2022-08-23T04:53:29.181Z,9.48
2022-08-23T04:56:32.213Z,9.70
2022-08-23T04:59:35.415Z,9.85
2022-08-23T05:02:38.154Z,9.55
2022-08-23T05:05:41.850Z,9.93
2022-08-23T05:08:44.253Z,9.32
2022-08-23T05:11:46.606Z,9.38
2022-08-23T05:14:48.943Z,9.00
2022-08-23T05:17:52.087Z,8.90
2022-08-23T05:20:54.546Z,9.95
2022-08-23T05:24:00.342Z,8.80
2022-08-23T05:27:04.677Z,9.57
2022-08-23T05:30:08.170Z,10.50
2022-08-23T05:33:17.319Z,10.15
2022-08-23T05:36:21.449Z,11.50
2022-08-23T05:39:32.822Z,10.30
2022-08-23T05:42:39.260Z,10.93
2022-08-23T05:45:41.769Z,10.52
2022-08-23T05:48:50.921Z,10.68
2022-08-23T05:51:53.257Z,11.10
2022-08-23T05:54:55.798Z,11.00
2022-08-23T05:57:58.583Z,12.48
2022-08-23T06:01:01.938Z,11.93
2022-08-23T06:04:06.986Z,13.15
2022-08-23T06:07:11.032Z,12.77
2022-08-23T06:10:15.955Z,13.18
2022-08-23T06:13:19.178Z,13.43
2022-08-23T06:16:26.330Z,13.65
2022-08-23T06:19:28.586Z,13.82
2022-08-23T06:22:32.218Z,14.48
2022-08-23T06:25:38.917Z,15.57
2022-08-23T06:28:50.207Z,15.32
2022-08-23T06:31:53.970Z,14.63
2022-08-23T06:35:27.817Z,14.95
2022-08-23T06:38:21.629Z,14.53
2022-08-23T06:41:24.238Z,14.77
2022-08-23T06:44:27.483Z,15.00
2022-08-23T06:47:31.578Z,14.05
2022-08-23T06:50:34.091Z,13.55
2022-08-23T06:53:40.618Z,13.70
2022-08-23T06:56:44.468Z,14.32
2022-08-23T06:59:48.729Z,15.32
2022-08-23T07:02:51.133Z,14.82
2022-08-23T07:05:57.695Z,13.15
2022-08-23T07:09:00.890Z,13.90
2022-08-23T07:12:03.719Z,13.32
2022-08-23T07:15:06.613Z,12.35
2022-08-23T07:18:11.014Z,14.00
2022-08-23T07:21:16.321Z,12.55
2022-08-23T07:24:21.594Z,11.88
2022-08-23T07:27:24.321Z,11.73
2022-08-23T07:30:27.461Z,12.52
2022-08-23T07:33:29.662Z,13.20
2022-08-23T07:36:34.620Z,12.90
2022-08-23T07:39:37.158Z,11.95
2022-08-23T07:42:44.066Z,11.32
2022-08-23T07:45:48.787Z,11.68
2022-08-23T07:48:54.853Z,11.12
2022-08-23T07:51:58.797Z,10.77
2022-08-23T07:55:01.794Z,12.27
2022-08-23T07:58:04.282Z,11.12
2022-08-23T08:01:21.970Z,12.55
2022-08-23T08:04:24.426Z,12.77
2022-08-23T08:07:27.581Z,11.80
2022-08-23T08:10:36.743Z,12.88
2022-08-23T08:13:43.525Z,13.57
2022-08-23T08:16:48.842Z,13.55
2022-08-23T08:19:51.794Z,13.10
2022-08-23T08:23:00.778Z,11.75
2022-08-23T08:26:08.010Z,10.60
2022-08-23T08:29:11.976Z,10.45
2022-08-23T08:32:17.510Z,11.52
2022-08-23T08:35:20.205Z,11.77
2022-08-23T08:38:23.113Z,9.95
2022-08-23T08:42:04.308Z,10.45
2022-08-23T08:45:12.317Z,9.63
2022-08-23T08:48:22.147Z,8.23
2022-08-23T08:51:58.805Z,10.65
2022-08-23T08:55:24.625Z,10.30
2022-08-23T08:58:40.102Z,12.63
2022-08-23T09:01:42.604Z,9.93
2022-08-23T09:04:48.224Z,11.57
2022-08-23T09:08:25.014Z,11.65
2022-08-23T09:12:05.088Z,9.27
2022-08-23T09:15:28.665Z,8.90
2022-08-23T09:18:34.194Z,10.35
2022-08-23T09:21:49.447Z,8.90
2022-08-23T09:24:51.913Z,9.00
2022-08-23T09:27:56.075Z,9.10
2022-08-23T09:30:59.539Z,8.60
2022-08-23T09:34:02.328Z,8.23
2022-08-23T09:37:09.837Z,10.45
2022-08-23T09:40:38.843Z,8.40
2022-08-23T09:43:47.138Z,7.20
2022-08-23T09:46:49.876Z,8.00
2022-08-23T09:49:54.550Z,7.63
2022-08-23T09:53:14.405Z,7.32
2022-08-23T09:56:24.400Z,6.65
2022-08-23T09:59:27.411Z,7.97
2022-08-23T10:02:35.269Z,8.43
2022-08-23T10:05:40.371Z,6.95
2022-08-23T10:08:55.245Z,6.18
2022-08-23T10:12:01.041Z,5.62
2022-08-23T10:15:06.773Z,6.47
2022-08-23T10:18:16.956Z,6.93
2022-08-23T10:21:25.453Z,5.10
2022-08-23T10:24:53.021Z,5.68
2022-08-23T10:28:48.137Z,5.82
2022-08-23T10:32:16.218Z,4.87
2022-08-23T10:35:30.549Z,5.40
2022-08-23T10:38:50.733Z,4.72
2022-08-23T10:42:02.950Z,5.35
2022-08-23T10:45:08.508Z,4.97
2022-08-23T10:48:17.074Z,5.97
2022-08-23T10:51:31.535Z,5.40
2022-08-23T10:54:59.374Z,5.28
2022-08-23T10:58:06.163Z,4.20
2022-08-23T11:01:12.648Z,4.53
2022-08-23T11:04:36.589Z,4.00
2022-08-23T11:10:52.807Z,5.22
2022-08-23T11:14:00.944Z,5.45
2022-08-23T11:17:28.559Z,4.85
2022-08-23T11:20:49.416Z,4.87
2022-08-23T11:23:59.574Z,4.70
2022-08-23T11:27:07.085Z,5.57
2022-08-23T11:30:32.645Z,4.70
2022-08-23T11:33:46.821Z,5.28
2022-08-23T11:37:20.374Z,5.07
2022-08-23T11:40:55.886Z,4.62
2022-08-23T11:44:03.280Z,4.78
2022-08-23T11:50:29.206Z,4.82
2022-08-23T11:53:50.777Z,4.60
2022-08-23T11:57:11.634Z,4.50
2022-08-23T12:00:41.517Z,5.07
2022-08-23T12:04:21.662Z,5.10
2022-08-23T12:07:55.284Z,5.90
2022-08-23T12:11:01.798Z,6.30
2022-08-23T12:14:32.679Z,5.25
2022-08-23T12:17:40.256Z,5.12
2022-08-23T12:20:48.185Z,5.43
2022-08-23T12:23:55.609Z,5.97
2022-08-23T12:27:23.932Z,5.47
2022-08-23T12:31:07.845Z,5.68
2022-08-23T12:34:51.601Z,6.10
2022-08-23T12:38:10.225Z,6.32
2022-08-23T12:41:17.621Z,6.40
2022-08-23T12:44:23.994Z,6.43
2022-08-23T12:47:27.797Z,5.93
2022-08-23T12:50:37.062Z,7.45
2022-08-23T12:53:45.628Z,5.90
2022-08-23T12:56:52.235Z,6.25
2022-08-23T13:00:17.564Z,6.80
2022-08-23T13:03:32.832Z,5.43
2022-08-23T13:06:42.272Z,5.75
2022-08-23T13:09:53.456Z,6.75
2022-08-23T13:12:57.574Z,5.78
2022-08-23T13:16:03.597Z,5.97
2022-08-23T13:19:38.194Z,6.37
2022-08-23T13:26:29.261Z,5.93
2022-08-23T13:29:32.451Z,6.35
2022-08-23T13:32:42.326Z,6.53
2022-08-23T13:35:47.184Z,6.15
2022-08-23T13:38:51.863Z,6.32
2022-08-23T13:41:55.583Z,6.28
2022-08-23T13:44:58.198Z,5.93
2022-08-23T13:48:06.540Z,6.53
2022-08-23T13:51:25.850Z,7.50
2022-08-23T13:54:30.033Z,5.75
